sensor_id;sensor_type;location;lat;lon;timestamp;temperature;humidity
5154;DHT22;2595;53.584;10.084;2022-07-04T00:00:11;19.30;99.90
5154;DHT22;2595;53.584;10.084;2022-07-04T00:02:41;19.40;99.90
5154;DHT22;2595;53.584;10.084;2022-07-04T00:05:08;19.40;99.90
5154;DHT22;2595;53.584;10.084;2022-07-04T00:07:46;19.40;99.90
5154;DHT22;2595;53.584;10.084;2022-07-04T00:10:17;19.30;99.90
5154;DHT22;2595;53.584;10.084;2022-07-04T00:12:44;19.30;99.90
5154;DHT22;2595;53.584;10.084;2022-07-04T00:15:10;19.30;99.90
5154;DHT22;2595;53.584;10.084;2022-07-04T00:17:37;19.30;99.90
5154;DHT22;2595;53.584;10.084;2022-07-04T00:20:03;19.30;99.90
5154;DHT22;2595;53.584;10.084;2022-07-04T00:22:29;19.30;99.90
5154;DHT22;2595;53.584;10.084;2022-07-04T00:24:55;19.30;99.90
5154;DHT22;2595;53.584;10.084;2022-07-04T00:27:20;19.30;99.90
5154;DHT22;2595;53.584;10.084;2022-07-04T00:29:46;19.20;99.90
5154;DHT22;2595;53.584;10.084;2022-07-04T00:32:12;19.10;99.90
5154;DHT22;2595;53.584;10.084;2022-07-04T00:34:37;19.10;99.90
5154;DHT22;2595;53.584;10.084;2022-07-04T00:37:03;19.10;99.90
5154;DHT22;2595;53.584;10.084;2022-07-04T00:39:29;19.20;99.90
5154;DHT22;2595;53.584;10.084;2022-07-04T00:41:55;19.20;99.90
5154;DHT22;2595;53.584;10.084;2022-07-04T00:44:20;19.10;99.90
5154;DHT22;2595;53.584;10.084;2022-07-04T00:46:46;19.20;99.90
5154;DHT22;2595;53.584;10.084;2022-07-04T00:49:14;19.10;99.90
5154;DHT22;2595;53.584;10.084;2022-07-04T00:51:41;19.10;99.90
5154;DHT22;2595;53.584;10.084;2022-07-04T00:54:14;19.10;99.90
5154;DHT22;2595;53.584;10.084;2022-07-04T00:56:43;19.00;99.90
5154;DHT22;2595;53.584;10.084;2022-07-04T00:59:09;19.00;99.90
5154;DHT22;2595;53.584;10.084;2022-07-04T01:01:35;19.00;99.90
5154;DHT22;2595;53.584;10.084;2022-07-04T01:04:03;19.00;99.90
5154;DHT22;2595;53.584;10.084;2022-07-04T01:06:29;19.00;99.90
5154;DHT22;2595;53.584;10.084;2022-07-04T01:08:55;18.90;99.90
5154;DHT22;2595;53.584;10.084;2022-07-04T01:11:21;18.80;99.90
5154;DHT22;2595;53.584;10.084;2022-07-04T01:13:47;18.80;99.90
5154;DHT22;2595;53.584;10.084;2022-07-04T01:16:13;18.70;99.90
5154;DHT22;2595;53.584;10.084;2022-07-04T01:18:39;18.70;99.90
5154;DHT22;2595;53.584;10.084;2022-07-04T01:21:06;18.80;99.90
5154;DHT22;2595;53.584;10.084;2022-07-04T01:23:32;18.70;99.90
5154;DHT22;2595;53.584;10.084;2022-07-04T01:26:02;18.70;99.90
5154;DHT22;2595;53.584;10.084;2022-07-04T01:28:28;18.70;99.90
5154;DHT22;2595;53.584;10.084;2022-07-04T01:30:53;18.70;99.90
5154;DHT22;2595;53.584;10.084;2022-07-04T01:33:19;18.70;99.90
5154;DHT22;2595;53.584;10.084;2022-07-04T01:35:45;18.60;99.90
5154;DHT22;2595;53.584;10.084;2022-07-04T01:38:10;18.60;99.90
5154;DHT22;2595;53.584;10.084;2022-07-04T01:40:36;18.50;99.90
5154;DHT22;2595;53.584;10.084;2022-07-04T01:43:02;18.50;99.90
5154;DHT22;2595;53.584;10.084;2022-07-04T01:45:28;18.50;99.90
5154;DHT22;2595;53.584;10.084;2022-07-04T01:47:53;18.50;99.90
5154;DHT22;2595;53.584;10.084;2022-07-04T01:50:20;18.40;99.90
5154;DHT22;2595;53.584;10.084;2022-07-04T01:52:45;18.40;99.90
5154;DHT22;2595;53.584;10.084;2022-07-04T01:55:11;18.40;99.90
5154;DHT22;2595;53.584;10.084;2022-07-04T01:57:38;18.40;99.90
5154;DHT22;2595;53.584;10.084;2022-07-04T02:00:06;18.40;99.90
5154;DHT22;2595;53.584;10.084;2022-07-04T02:02:50;18.40;99.90
5154;DHT22;2595;53.584;10.084;2022-07-04T02:05:15;18.30;99.90
5154;DHT22;2595;53.584;10.084;2022-07-04T02:07:41;18.20;99.90
5154;DHT22;2595;53.584;10.084;2022-07-04T02:10:07;18.20;99.90
5154;DHT22;2595;53.584;10.084;2022-07-04T02:12:33;18.20;99.90
5154;DHT22;2595;53.584;10.084;2022-07-04T02:15:17;18.30;99.90
5154;DHT22;2595;53.584;10.084;2022-07-04T02:17:42;18.30;99.90
5154;DHT22;2595;53.584;10.084;2022-07-04T02:20:08;18.10;99.90
5154;DHT22;2595;53.584;10.084;2022-07-04T02:22:34;18.10;99.90
5154;DHT22;2595;53.584;10.084;2022-07-04T02:25:00;18.10;99.90
5154;DHT22;2595;53.584;10.084;2022-07-04T02:27:25;18.20;99.90
5154;DHT22;2595;53.584;10.084;2022-07-04T02:29:51;18.10;99.90
5154;DHT22;2595;53.584;10.084;2022-07-04T02:32:17;18.10;99.90
5154;DHT22;2595;53.584;10.084;2022-07-04T02:34:42;18.10;99.90
5154;DHT22;2595;53.584;10.084;2022-07-04T02:37:08;18.10;99.90
5154;DHT22;2595;53.584;10.084;2022-07-04T02:39:35;18.10;99.90
5154;DHT22;2595;53.584;10.084;2022-07-04T02:42:00;18.10;99.90
5154;DHT22;2595;53.584;10.084;2022-07-04T02:44:26;18.10;99.90
5154;DHT22;2595;53.584;10.084;2022-07-04T02:46:52;18.10;99.90
5154;DHT22;2595;53.584;10.084;2022-07-04T02:49:17;18.10;99.90
5154;DHT22;2595;53.584;10.084;2022-07-04T02:51:43;18.10;99.90
5154;DHT22;2595;53.584;10.084;2022-07-04T02:54:09;18.00;99.90
5154;DHT22;2595;53.584;10.084;2022-07-04T02:56:34;18.00;99.90
5154;DHT22;2595;53.584;10.084;2022-07-04T02:59:00;18.00;99.90
5154;DHT22;2595;53.584;10.084;2022-07-04T03:01:26;18.00;99.90
5154;DHT22;2595;53.584;10.084;2022-07-04T03:03:52;18.00;99.90
5154;DHT22;2595;53.584;10.084;2022-07-04T03:06:17;18.00;99.90
5154;DHT22;2595;53.584;10.084;2022-07-04T03:08:43;18.00;99.90
5154;DHT22;2595;53.584;10.084;2022-07-04T03:11:09;18.00;99.90
5154;DHT22;2595;53.584;10.084;2022-07-04T03:13:36;18.00;99.90
5154;DHT22;2595;53.584;10.084;2022-07-04T03:16:03;18.00;99.90
5154;DHT22;2595;53.584;10.084;2022-07-04T03:18:28;18.00;99.90
5154;DHT22;2595;53.584;10.084;2022-07-04T03:20:54;18.00;99.90
5154;DHT22;2595;53.584;10.084;2022-07-04T03:23:19;18.00;99.90
5154;DHT22;2595;53.584;10.084;2022-07-04T03:25:45;18.00;99.90
5154;DHT22;2595;53.584;10.084;2022-07-04T03:28:11;17.90;99.90
5154;DHT22;2595;53.584;10.084;2022-07-04T03:30:37;17.90;99.90
5154;DHT22;2595;53.584;10.084;2022-07-04T03:33:03;17.90;99.90
5154;DHT22;2595;53.584;10.084;2022-07-04T03:35:28;17.90;99.90
5154;DHT22;2595;53.584;10.084;2022-07-04T03:37:54;17.90;99.90
5154;DHT22;2595;53.584;10.084;2022-07-04T03:40:20;17.90;99.90
5154;DHT22;2595;53.584;10.084;2022-07-04T03:42:46;17.90;99.90
5154;DHT22;2595;53.584;10.084;2022-07-04T03:45:12;17.90;99.90
5154;DHT22;2595;53.584;10.084;2022-07-04T03:47:38;17.90;99.90
5154;DHT22;2595;53.584;10.084;2022-07-04T03:50:04;17.90;99.90
5154;DHT22;2595;53.584;10.084;2022-07-04T03:52:30;17.90;99.90
5154;DHT22;2595;53.584;10.084;2022-07-04T03:54:56;17.90;99.90
5154;DHT22;2595;53.584;10.084;2022-07-04T03:57:22;17.80;99.90
5154;DHT22;2595;53.584;10.084;2022-07-04T03:59:47;17.80;99.90
5154;DHT22;2595;53.584;10.084;2022-07-04T04:02:13;17.80;99.90
5154;DHT22;2595;53.584;10.084;2022-07-04T04:04:39;17.80;99.90
5154;DHT22;2595;53.584;10.084;2022-07-04T04:07:23;17.80;99.90
5154;DHT22;2595;53.584;10.084;2022-07-04T04:09:49;17.80;99.90
5154;DHT22;2595;53.584;10.084;2022-07-04T04:12:14;17.80;99.90
5154;DHT22;2595;53.584;10.084;2022-07-04T04:14:40;17.80;99.90
5154;DHT22;2595;53.584;10.084;2022-07-04T04:17:06;17.80;99.90
5154;DHT22;2595;53.584;10.084;2022-07-04T04:19:31;17.90;99.90
5154;DHT22;2595;53.584;10.084;2022-07-04T04:21:57;17.90;99.90
5154;DHT22;2595;53.584;10.084;2022-07-04T04:24:22;17.90;99.90
5154;DHT22;2595;53.584;10.084;2022-07-04T04:26:48;17.90;99.90
5154;DHT22;2595;53.584;10.084;2022-07-04T04:29:14;18.00;99.90
5154;DHT22;2595;53.584;10.084;2022-07-04T04:31:39;18.00;99.90
5154;DHT22;2595;53.584;10.084;2022-07-04T04:34:05;18.00;99.90
5154;DHT22;2595;53.584;10.084;2022-07-04T04:36:30;18.00;99.90
5154;DHT22;2595;53.584;10.084;2022-07-04T04:38:56;18.00;99.90
5154;DHT22;2595;53.584;10.084;2022-07-04T04:41:22;18.00;99.90
5154;DHT22;2595;53.584;10.084;2022-07-04T04:43:47;18.10;99.90
5154;DHT22;2595;53.584;10.084;2022-07-04T04:46:14;18.10;99.90
5154;DHT22;2595;53.584;10.084;2022-07-04T04:48:39;18.10;99.90
5154;DHT22;2595;53.584;10.084;2022-07-04T04:51:05;18.10;99.90
5154;DHT22;2595;53.584;10.084;2022-07-04T04:53:31;18.10;99.90
5154;DHT22;2595;53.584;10.084;2022-07-04T04:55:57;18.10;99.90
5154;DHT22;2595;53.584;10.084;2022-07-04T04:58:23;18.10;99.90
5154;DHT22;2595;53.584;10.084;2022-07-04T05:00:49;18.10;99.90
5154;DHT22;2595;53.584;10.084;2022-07-04T05:03:18;18.10;99.90
5154;DHT22;2595;53.584;10.084;2022-07-04T05:05:44;18.20;99.90
5154;DHT22;2595;53.584;10.084;2022-07-04T05:08:10;18.20;99.90
5154;DHT22;2595;53.584;10.084;2022-07-04T05:10:38;18.20;99.90
5154;DHT22;2595;53.584;10.084;2022-07-04T05:13:04;18.30;99.90
5154;DHT22;2595;53.584;10.084;2022-07-04T05:15:30;18.30;99.90
5154;DHT22;2595;53.584;10.084;2022-07-04T05:17:55;18.40;99.90
5154;DHT22;2595;53.584;10.084;2022-07-04T05:20:21;18.40;99.90
5154;DHT22;2595;53.584;10.084;2022-07-04T05:22:47;18.40;99.90
5154;DHT22;2595;53.584;10.084;2022-07-04T05:25:12;18.40;99.90
5154;DHT22;2595;53.584;10.084;2022-07-04T05:27:38;18.40;99.90
5154;DHT22;2595;53.584;10.084;2022-07-04T05:30:06;18.50;99.90
5154;DHT22;2595;53.584;10.084;2022-07-04T05:32:31;18.50;99.90
5154;DHT22;2595;53.584;10.084;2022-07-04T05:34:57;18.50;99.90
5154;DHT22;2595;53.584;10.084;2022-07-04T05:37:24;18.50;99.90
5154;DHT22;2595;53.584;10.084;2022-07-04T05:39:49;18.50;99.90
5154;DHT22;2595;53.584;10.084;2022-07-04T05:42:16;18.50;99.90
5154;DHT22;2595;53.584;10.084;2022-07-04T05:44:41;18.50;99.90
5154;DHT22;2595;53.584;10.084;2022-07-04T05:47:07;18.40;99.90
5154;DHT22;2595;53.584;10.084;2022-07-04T05:49:33;18.40;99.90
5154;DHT22;2595;53.584;10.084;2022-07-04T05:51:59;18.40;99.90
5154;DHT22;2595;53.584;10.084;2022-07-04T05:54:24;18.40;99.90
5154;DHT22;2595;53.584;10.084;2022-07-04T05:56:50;18.40;99.90
5154;DHT22;2595;53.584;10.084;2022-07-04T05:59:16;18.50;99.90
5154;DHT22;2595;53.584;10.084;2022-07-04T06:01:41;18.50;99.90
5154;DHT22;2595;53.584;10.084;2022-07-04T06:04:07;18.50;99.90
5154;DHT22;2595;53.584;10.084;2022-07-04T06:06:33;18.50;99.90
5154;DHT22;2595;53.584;10.084;2022-07-04T06:08:59;18.50;99.90
5154;DHT22;2595;53.584;10.084;2022-07-04T06:11:25;18.50;99.90
5154;DHT22;2595;53.584;10.084;2022-07-04T06:13:51;18.50;99.90
5154;DHT22;2595;53.584;10.084;2022-07-04T06:16:16;18.60;99.90
5154;DHT22;2595;53.584;10.084;2022-07-04T06:18:43;18.60;99.90
5154;DHT22;2595;53.584;10.084;2022-07-04T06:21:09;18.60;99.90
5154;DHT22;2595;53.584;10.084;2022-07-04T06:23:35;18.70;99.90
5154;DHT22;2595;53.584;10.084;2022-07-04T06:26:00;18.70;99.90
5154;DHT22;2595;53.584;10.084;2022-07-04T06:28:26;18.60;99.90
5154;DHT22;2595;53.584;10.084;2022-07-04T06:30:52;18.70;99.90
5154;DHT22;2595;53.584;10.084;2022-07-04T06:33:18;18.70;99.90
5154;DHT22;2595;53.584;10.084;2022-07-04T06:35:44;18.80;99.90
5154;DHT22;2595;53.584;10.084;2022-07-04T06:38:14;18.80;99.90
5154;DHT22;2595;53.584;10.084;2022-07-04T06:40:40;18.80;99.90
5154;DHT22;2595;53.584;10.084;2022-07-04T06:43:06;18.80;99.90
5154;DHT22;2595;53.584;10.084;2022-07-04T06:45:32;18.80;99.90
5154;DHT22;2595;53.584;10.084;2022-07-04T06:48:03;18.90;99.90
5154;DHT22;2595;53.584;10.084;2022-07-04T06:50:29;18.90;99.90
5154;DHT22;2595;53.584;10.084;2022-07-04T06:52:58;18.90;99.90
5154;DHT22;2595;53.584;10.084;2022-07-04T06:55:34;18.90;99.90
5154;DHT22;2595;53.584;10.084;2022-07-04T06:58:00;19.00;99.90
5154;DHT22;2595;53.584;10.084;2022-07-04T07:00:25;19.00;99.90
5154;DHT22;2595;53.584;10.084;2022-07-04T07:02:51;19.00;99.90
5154;DHT22;2595;53.584;10.084;2022-07-04T07:05:17;19.10;99.90
5154;DHT22;2595;53.584;10.084;2022-07-04T07:07:42;19.10;99.90
5154;DHT22;2595;53.584;10.084;2022-07-04T07:10:08;19.00;99.90
5154;DHT22;2595;53.584;10.084;2022-07-04T07:12:34;19.00;99.90
5154;DHT22;2595;53.584;10.084;2022-07-04T07:15:01;19.10;99.90
5154;DHT22;2595;53.584;10.084;2022-07-04T07:17:27;19.10;99.90
5154;DHT22;2595;53.584;10.084;2022-07-04T07:19:53;19.10;99.90
5154;DHT22;2595;53.584;10.084;2022-07-04T07:22:19;19.10;99.90
5154;DHT22;2595;53.584;10.084;2022-07-04T07:24:45;19.20;99.90
5154;DHT22;2595;53.584;10.084;2022-07-04T07:27:11;19.10;99.90
5154;DHT22;2595;53.584;10.084;2022-07-04T07:29:37;19.20;99.90
5154;DHT22;2595;53.584;10.084;2022-07-04T07:32:03;19.20;99.90
5154;DHT22;2595;53.584;10.084;2022-07-04T07:34:29;19.20;99.90
5154;DHT22;2595;53.584;10.084;2022-07-04T07:36:55;19.30;99.90
5154;DHT22;2595;53.584;10.084;2022-07-04T07:39:21;19.30;99.90
5154;DHT22;2595;53.584;10.084;2022-07-04T07:41:47;19.30;99.90
5154;DHT22;2595;53.584;10.084;2022-07-04T07:44:12;19.30;99.90
5154;DHT22;2595;53.584;10.084;2022-07-04T07:46:38;19.30;99.90
5154;DHT22;2595;53.584;10.084;2022-07-04T07:49:04;19.30;99.90
5154;DHT22;2595;53.584;10.084;2022-07-04T07:51:30;19.30;99.90
5154;DHT22;2595;53.584;10.084;2022-07-04T07:53:55;19.30;99.90
5154;DHT22;2595;53.584;10.084;2022-07-04T07:56:21;19.30;99.90
5154;DHT22;2595;53.584;10.084;2022-07-04T07:58:49;19.30;99.90
5154;DHT22;2595;53.584;10.084;2022-07-04T08:01:15;19.30;99.90
5154;DHT22;2595;53.584;10.084;2022-07-04T08:03:40;19.30;99.90
5154;DHT22;2595;53.584;10.084;2022-07-04T08:06:25;19.40;99.90
5154;DHT22;2595;53.584;10.084;2022-07-04T08:08:50;19.40;99.90
5154;DHT22;2595;53.584;10.084;2022-07-04T08:11:16;19.40;99.90
5154;DHT22;2595;53.584;10.084;2022-07-04T08:13:42;19.40;99.90
5154;DHT22;2595;53.584;10.084;2022-07-04T08:16:08;19.40;99.90
5154;DHT22;2595;53.584;10.084;2022-07-04T08:18:34;19.40;99.90
5154;DHT22;2595;53.584;10.084;2022-07-04T08:21:00;19.50;99.90
5154;DHT22;2595;53.584;10.084;2022-07-04T08:23:26;19.50;99.90
5154;DHT22;2595;53.584;10.084;2022-07-04T08:25:52;19.60;99.90
5154;DHT22;2595;53.584;10.084;2022-07-04T08:28:18;19.60;99.90
5154;DHT22;2595;53.584;10.084;2022-07-04T08:30:44;19.70;99.90
5154;DHT22;2595;53.584;10.084;2022-07-04T08:33:09;19.70;99.90
5154;DHT22;2595;53.584;10.084;2022-07-04T08:35:35;19.80;99.90
5154;DHT22;2595;53.584;10.084;2022-07-04T08:38:00;19.80;99.90
5154;DHT22;2595;53.584;10.084;2022-07-04T08:40:27;19.80;99.90
5154;DHT22;2595;53.584;10.084;2022-07-04T08:42:53;19.80;99.90
5154;DHT22;2595;53.584;10.084;2022-07-04T08:45:28;19.80;99.90
5154;DHT22;2595;53.584;10.084;2022-07-04T08:48:02;19.80;99.90
5154;DHT22;2595;53.584;10.084;2022-07-04T08:50:33;19.90;99.90
5154;DHT22;2595;53.584;10.084;2022-07-04T08:53:19;19.90;99.90
5154;DHT22;2595;53.584;10.084;2022-07-04T08:55:47;20.00;99.90
5154;DHT22;2595;53.584;10.084;2022-07-04T08:58:32;20.00;99.90
5154;DHT22;2595;53.584;10.084;2022-07-04T09:01:09;20.00;99.90
5154;DHT22;2595;53.584;10.084;2022-07-04T09:03:43;20.00;99.90
5154;DHT22;2595;53.584;10.084;2022-07-04T09:06:10;20.00;99.90
5154;DHT22;2595;53.584;10.084;2022-07-04T09:08:37;20.10;99.90
5154;DHT22;2595;53.584;10.084;2022-07-04T09:11:03;20.20;99.90
5154;DHT22;2595;53.584;10.084;2022-07-04T09:13:30;20.20;99.90
5154;DHT22;2595;53.584;10.084;2022-07-04T09:15:56;20.20;99.90
5154;DHT22;2595;53.584;10.084;2022-07-04T09:20:54;20.20;99.90
5154;DHT22;2595;53.584;10.084;2022-07-04T09:23:23;20.20;99.90
5154;DHT22;2595;53.584;10.084;2022-07-04T09:26:06;20.30;99.90
5154;DHT22;2595;53.584;10.084;2022-07-04T09:28:33;20.30;99.90
5154;DHT22;2595;53.584;10.084;2022-07-04T09:30:59;20.40;99.90
5154;DHT22;2595;53.584;10.084;2022-07-04T09:36:19;20.50;99.90
5154;DHT22;2595;53.584;10.084;2022-07-04T09:38:45;20.60;99.90
5154;DHT22;2595;53.584;10.084;2022-07-04T09:41:11;20.60;99.90
5154;DHT22;2595;53.584;10.084;2022-07-04T09:44:02;20.60;99.90
5154;DHT22;2595;53.584;10.084;2022-07-04T09:46:28;20.70;99.90
5154;DHT22;2595;53.584;10.084;2022-07-04T09:48:54;20.70;99.90
5154;DHT22;2595;53.584;10.084;2022-07-04T09:51:47;20.80;99.90
5154;DHT22;2595;53.584;10.084;2022-07-04T09:56:43;20.80;99.90
5154;DHT22;2595;53.584;10.084;2022-07-04T09:59:09;20.80;99.90
5154;DHT22;2595;53.584;10.084;2022-07-04T10:01:34;20.80;99.90
5154;DHT22;2595;53.584;10.084;2022-07-04T10:04:00;20.90;99.90
5154;DHT22;2595;53.584;10.084;2022-07-04T10:06:31;20.90;99.90
5154;DHT22;2595;53.584;10.084;2022-07-04T10:09:15;21.00;99.90
5154;DHT22;2595;53.584;10.084;2022-07-04T10:11:43;21.00;99.90
5154;DHT22;2595;53.584;10.084;2022-07-04T10:14:10;21.10;99.90
5154;DHT22;2595;53.584;10.084;2022-07-04T10:16:37;21.10;99.90
5154;DHT22;2595;53.584;10.084;2022-07-04T10:19:04;21.10;99.90
5154;DHT22;2595;53.584;10.084;2022-07-04T10:21:30;21.10;99.90
5154;DHT22;2595;53.584;10.084;2022-07-04T10:23:57;21.20;99.90
5154;DHT22;2595;53.584;10.084;2022-07-04T10:26:23;21.10;99.90
5154;DHT22;2595;53.584;10.084;2022-07-04T10:28:50;21.00;99.90
5154;DHT22;2595;53.584;10.084;2022-07-04T10:31:18;21.00;99.90
5154;DHT22;2595;53.584;10.084;2022-07-04T10:33:45;21.10;99.90
5154;DHT22;2595;53.584;10.084;2022-07-04T10:36:19;21.00;99.90
5154;DHT22;2595;53.584;10.084;2022-07-04T10:38:56;21.10;99.90
5154;DHT22;2595;53.584;10.084;2022-07-04T10:41:25;21.10;99.90
5154;DHT22;2595;53.584;10.084;2022-07-04T10:44:03;21.10;99.90
5154;DHT22;2595;53.584;10.084;2022-07-04T10:46:49;21.10;99.90
5154;DHT22;2595;53.584;10.084;2022-07-04T10:54:31;21.30;99.90
5154;DHT22;2595;53.584;10.084;2022-07-04T10:59:43;21.30;99.90
5154;DHT22;2595;53.584;10.084;2022-07-04T11:07:13;22.60;99.90
5154;DHT22;2595;53.584;10.084;2022-07-04T11:09:39;23.20;99.90
5154;DHT22;2595;53.584;10.084;2022-07-04T11:12:04;23.50;99.90
5154;DHT22;2595;53.584;10.084;2022-07-04T11:14:38;23.50;99.90
5154;DHT22;2595;53.584;10.084;2022-07-04T11:17:05;23.30;99.90
5154;DHT22;2595;53.584;10.084;2022-07-04T11:19:31;23.00;99.90
5154;DHT22;2595;53.584;10.084;2022-07-04T11:21:58;22.80;99.90
5154;DHT22;2595;53.584;10.084;2022-07-04T11:24:24;22.50;99.90
5154;DHT22;2595;53.584;10.084;2022-07-04T11:26:50;22.40;99.90
5154;DHT22;2595;53.584;10.084;2022-07-04T11:29:16;22.30;99.90
5154;DHT22;2595;53.584;10.084;2022-07-04T11:31:44;22.10;99.90
5154;DHT22;2595;53.584;10.084;2022-07-04T11:34:10;22.00;99.90
5154;DHT22;2595;53.584;10.084;2022-07-04T11:36:37;21.90;99.90
5154;DHT22;2595;53.584;10.084;2022-07-04T11:39:05;21.80;99.90
5154;DHT22;2595;53.584;10.084;2022-07-04T11:41:33;21.70;99.90
5154;DHT22;2595;53.584;10.084;2022-07-04T11:44:28;21.70;99.90
5154;DHT22;2595;53.584;10.084;2022-07-04T11:52:09;21.50;99.90
5154;DHT22;2595;53.584;10.084;2022-07-04T11:54:35;21.70;99.90
5154;DHT22;2595;53.584;10.084;2022-07-04T11:57:24;21.80;99.90
5154;DHT22;2595;53.584;10.084;2022-07-04T12:02:50;22.10;99.90
5154;DHT22;2595;53.584;10.084;2022-07-04T12:05:16;22.20;99.90
5154;DHT22;2595;53.584;10.084;2022-07-04T12:07:44;22.30;99.90
5154;DHT22;2595;53.584;10.084;2022-07-04T12:10:15;22.40;99.90
5154;DHT22;2595;53.584;10.084;2022-07-04T12:15:31;22.40;99.90
5154;DHT22;2595;53.584;10.084;2022-07-04T12:18:00;22.50;99.90
5154;DHT22;2595;53.584;10.084;2022-07-04T12:20:26;22.60;99.90
5154;DHT22;2595;53.584;10.084;2022-07-04T12:23:10;22.60;99.90
5154;DHT22;2595;53.584;10.084;2022-07-04T12:25:38;22.80;99.90
5154;DHT22;2595;53.584;10.084;2022-07-04T12:28:06;22.90;99.90
5154;DHT22;2595;53.584;10.084;2022-07-04T12:30:35;23.00;99.90
5154;DHT22;2595;53.584;10.084;2022-07-04T12:33:02;23.10;99.90
5154;DHT22;2595;53.584;10.084;2022-07-04T12:38:07;23.00;99.90
5154;DHT22;2595;53.584;10.084;2022-07-04T12:40:49;23.00;99.90
5154;DHT22;2595;53.584;10.084;2022-07-04T12:43:15;22.90;99.90
5154;DHT22;2595;53.584;10.084;2022-07-04T12:45:46;22.80;99.90
5154;DHT22;2595;53.584;10.084;2022-07-04T12:48:23;22.80;99.90
5154;DHT22;2595;53.584;10.084;2022-07-04T12:50:50;22.70;99.90
5154;DHT22;2595;53.584;10.084;2022-07-04T12:53:16;22.60;99.90
5154;DHT22;2595;53.584;10.084;2022-07-04T12:55:43;22.50;99.90
5154;DHT22;2595;53.584;10.084;2022-07-04T12:58:10;22.60;99.90
5154;DHT22;2595;53.584;10.084;2022-07-04T13:00:36;22.70;99.90
5154;DHT22;2595;53.584;10.084;2022-07-04T13:03:03;22.90;99.90
5154;DHT22;2595;53.584;10.084;2022-07-04T13:05:28;23.00;99.90
5154;DHT22;2595;53.584;10.084;2022-07-04T13:07:54;23.20;99.90
5154;DHT22;2595;53.584;10.084;2022-07-04T13:10:19;23.30;99.90
5154;DHT22;2595;53.584;10.084;2022-07-04T13:12:45;23.40;99.90
5154;DHT22;2595;53.584;10.084;2022-07-04T13:15:11;23.50;99.90
5154;DHT22;2595;53.584;10.084;2022-07-04T13:17:37;23.60;99.90
5154;DHT22;2595;53.584;10.084;2022-07-04T13:20:03;23.60;99.90
5154;DHT22;2595;53.584;10.084;2022-07-04T13:22:30;23.70;99.90
5154;DHT22;2595;53.584;10.084;2022-07-04T13:24:56;23.70;99.90
5154;DHT22;2595;53.584;10.084;2022-07-04T13:27:22;23.90;99.90
5154;DHT22;2595;53.584;10.084;2022-07-04T13:29:47;24.20;99.90
5154;DHT22;2595;53.584;10.084;2022-07-04T13:32:13;24.40;99.90
5154;DHT22;2595;53.584;10.084;2022-07-04T13:34:39;24.50;99.10
5154;DHT22;2595;53.584;10.084;2022-07-04T13:37:05;24.50;99.00
5154;DHT22;2595;53.584;10.084;2022-07-04T13:39:31;24.40;99.50
5154;DHT22;2595;53.584;10.084;2022-07-04T13:41:57;24.50;99.90
5154;DHT22;2595;53.584;10.084;2022-07-04T13:44:23;24.40;99.60
5154;DHT22;2595;53.584;10.084;2022-07-04T13:46:48;24.30;99.80
5154;DHT22;2595;53.584;10.084;2022-07-04T13:49:14;24.20;99.90
5154;DHT22;2595;53.584;10.084;2022-07-04T13:51:41;23.90;99.90
5154;DHT22;2595;53.584;10.084;2022-07-04T13:54:07;23.70;99.90
5154;DHT22;2595;53.584;10.084;2022-07-04T13:56:33;23.40;99.90
5154;DHT22;2595;53.584;10.084;2022-07-04T13:59:00;23.30;99.90
5154;DHT22;2595;53.584;10.084;2022-07-04T14:01:26;23.30;99.90
5154;DHT22;2595;53.584;10.084;2022-07-04T14:03:52;23.10;99.90
5154;DHT22;2595;53.584;10.084;2022-07-04T14:06:18;23.00;99.90
5154;DHT22;2595;53.584;10.084;2022-07-04T14:08:44;22.90;99.90
5154;DHT22;2595;53.584;10.084;2022-07-04T14:11:10;22.80;99.90
5154;DHT22;2595;53.584;10.084;2022-07-04T14:13:36;22.80;99.90
5154;DHT22;2595;53.584;10.084;2022-07-04T14:16:02;22.90;99.90
5154;DHT22;2595;53.584;10.084;2022-07-04T14:18:30;23.30;99.90
5154;DHT22;2595;53.584;10.084;2022-07-04T14:20:56;23.60;99.90
5154;DHT22;2595;53.584;10.084;2022-07-04T14:23:21;23.80;99.90
5154;DHT22;2595;53.584;10.084;2022-07-04T14:26:06;23.80;99.90
5154;DHT22;2595;53.584;10.084;2022-07-04T14:28:32;23.90;99.90
5154;DHT22;2595;53.584;10.084;2022-07-04T14:30:58;24.00;99.90
5154;DHT22;2595;53.584;10.084;2022-07-04T14:33:23;24.20;99.90
5154;DHT22;2595;53.584;10.084;2022-07-04T14:35:49;24.40;99.90
5154;DHT22;2595;53.584;10.084;2022-07-04T14:38:15;24.80;99.90
5154;DHT22;2595;53.584;10.084;2022-07-04T14:40:41;25.00;99.90
5154;DHT22;2595;53.584;10.084;2022-07-04T14:43:09;25.20;99.90
5154;DHT22;2595;53.584;10.084;2022-07-04T14:45:35;25.40;99.90
5154;DHT22;2595;53.584;10.084;2022-07-04T14:48:00;25.70;99.90
5154;DHT22;2595;53.584;10.084;2022-07-04T14:50:26;25.80;99.90
5154;DHT22;2595;53.584;10.084;2022-07-04T14:52:51;26.10;99.80
5154;DHT22;2595;53.584;10.084;2022-07-04T14:55:17;26.30;99.10
5154;DHT22;2595;53.584;10.084;2022-07-04T14:57:42;26.40;99.00
5154;DHT22;2595;53.584;10.084;2022-07-04T15:00:09;26.50;98.70
5154;DHT22;2595;53.584;10.084;2022-07-04T15:02:34;26.50;98.30
5154;DHT22;2595;53.584;10.084;2022-07-04T15:05:00;26.50;98.60
5154;DHT22;2595;53.584;10.084;2022-07-04T15:07:25;26.40;98.30
5154;DHT22;2595;53.584;10.084;2022-07-04T15:09:51;26.50;99.00
5154;DHT22;2595;53.584;10.084;2022-07-04T15:12:17;26.30;98.70
5154;DHT22;2595;53.584;10.084;2022-07-04T15:14:42;26.30;98.60
5154;DHT22;2595;53.584;10.084;2022-07-04T15:17:08;26.40;98.60
5154;DHT22;2595;53.584;10.084;2022-07-04T15:19:33;26.40;98.30
5154;DHT22;2595;53.584;10.084;2022-07-04T15:22:20;26.40;98.20
5154;DHT22;2595;53.584;10.084;2022-07-04T15:25:04;26.30;97.90
5154;DHT22;2595;53.584;10.084;2022-07-04T15:27:30;26.50;97.40
5154;DHT22;2595;53.584;10.084;2022-07-04T15:29:55;26.40;96.90
5154;DHT22;2595;53.584;10.084;2022-07-04T15:32:21;26.30;96.30
5154;DHT22;2595;53.584;10.084;2022-07-04T15:34:47;26.40;96.40
5154;DHT22;2595;53.584;10.084;2022-07-04T15:37:12;26.50;96.70
5154;DHT22;2595;53.584;10.084;2022-07-04T15:39:38;26.40;95.50
5154;DHT22;2595;53.584;10.084;2022-07-04T15:42:03;26.30;94.40
5154;DHT22;2595;53.584;10.084;2022-07-04T15:44:29;26.10;94.30
5154;DHT22;2595;53.584;10.084;2022-07-04T15:46:55;25.90;94.50
5154;DHT22;2595;53.584;10.084;2022-07-04T15:49:36;25.70;94.80
5154;DHT22;2595;53.584;10.084;2022-07-04T15:52:05;25.50;95.20
5154;DHT22;2595;53.584;10.084;2022-07-04T15:54:31;25.20;95.60
5154;DHT22;2595;53.584;10.084;2022-07-04T15:56:57;25.00;97.60
5154;DHT22;2595;53.584;10.084;2022-07-04T15:59:23;24.90;99.00
5154;DHT22;2595;53.584;10.084;2022-07-04T16:01:49;24.70;99.90
5154;DHT22;2595;53.584;10.084;2022-07-04T16:04:14;24.60;99.90
5154;DHT22;2595;53.584;10.084;2022-07-04T16:06:40;24.60;99.90
5154;DHT22;2595;53.584;10.084;2022-07-04T16:09:06;24.50;99.90
5154;DHT22;2595;53.584;10.084;2022-07-04T16:11:32;24.40;99.90
5154;DHT22;2595;53.584;10.084;2022-07-04T16:13:58;24.20;99.90
5154;DHT22;2595;53.584;10.084;2022-07-04T16:16:24;24.00;99.90
5154;DHT22;2595;53.584;10.084;2022-07-04T16:18:50;24.00;99.90